sensor_id;sensor_type;location;lat;lon;timestamp;pressure;altitude;pressure_sealevel;temperature;humidity
60489;BME280;46331;49.252;8.904;2023-07-13T00:00:17;99695.84;;;19.29;66.72
60489;BME280;46331;49.252;8.904;2023-07-13T00:00:58;99705.81;;;19.29;67.08
60489;BME280;46331;49.252;8.904;2023-07-13T00:01:38;99700.53;;;19.24;67.25
60489;BME280;46331;49.252;8.904;2023-07-13T00:02:19;99703.22;;;19.24;67.32
60489;BME280;46331;49.252;8.904;2023-07-13T00:02:59;99705.19;;;19.18;67.47
60489;BME280;46331;49.252;8.904;2023-07-13T00:03:40;99705.28;;;19.13;66.89
60489;BME280;46331;49.252;8.904;2023-07-13T00:04:22;99709.34;;;19.10;67.22
60489;BME280;46331;49.252;8.904;2023-07-13T00:05:05;99709.75;;;19.04;67.25
60489;BME280;46331;49.252;8.904;2023-07-13T00:05:46;99705.53;;;18.98;67.24
60489;BME280;46331;49.252;8.904;2023-07-13T00:06:28;99710.69;;;18.94;67.56
60489;BME280;46331;49.252;8.904;2023-07-13T00:07:13;99702.72;;;18.89;67.89
60489;BME280;46331;49.252;8.904;2023-07-13T00:07:54;99713.53;;;18.84;67.69
60489;BME280;46331;49.252;8.904;2023-07-13T00:08:35;99716.78;;;18.81;67.94
60489;BME280;46331;49.252;8.904;2023-07-13T00:09:16;99712.78;;;18.78;68.08
60489;BME280;46331;49.252;8.904;2023-07-13T00:09:57;99717.13;;;18.74;67.98
60489;BME280;46331;49.252;8.904;2023-07-13T00:10:40;99710.19;;;18.73;68.23
60489;BME280;46331;49.252;8.904;2023-07-13T00:11:21;99712.94;;;18.68;68.21
60489;BME280;46331;49.252;8.904;2023-07-13T00:12:02;99711.66;;;18.65;68.75
60489;BME280;46331;49.252;8.904;2023-07-13T00:12:43;99713.31;;;18.61;68.96
60489;BME280;46331;49.252;8.904;2023-07-13T00:13:24;99711.19;;;18.58;69.06
60489;BME280;46331;49.252;8.904;2023-07-13T00:14:05;99705.91;;;18.53;69.38
60489;BME280;46331;49.252;8.904;2023-07-13T00:14:45;99705.09;;;18.52;69.55
60489;BME280;46331;49.252;8.904;2023-07-13T00:15:26;99708.06;;;18.51;69.79
60489;BME280;46331;49.252;8.904;2023-07-13T00:16:08;99705.19;;;18.47;69.74
60489;BME280;46331;49.252;8.904;2023-07-13T00:16:49;99707.38;;;18.45;69.94
60489;BME280;46331;49.252;8.904;2023-07-13T00:17:30;99706.03;;;18.43;69.94
60489;BME280;46331;49.252;8.904;2023-07-13T00:18:10;99708.50;;;18.39;70.29
60489;BME280;46331;49.252;8.904;2023-07-13T00:18:51;99705.31;;;18.37;70.25
60489;BME280;46331;49.252;8.904;2023-07-13T00:19:33;99705.38;;;18.32;70.47
60489;BME280;46331;49.252;8.904;2023-07-13T00:20:15;99704.56;;;18.31;70.65
60489;BME280;46331;49.252;8.904;2023-07-13T00:20:56;99704.34;;;18.28;70.38
60489;BME280;46331;49.252;8.904;2023-07-13T00:21:45;99692.59;;;18.23;70.57
60489;BME280;46331;49.252;8.904;2023-07-13T00:22:25;99698.81;;;18.19;70.72
60489;BME280;46331;49.252;8.904;2023-07-13T00:23:06;99697.53;;;18.16;70.79
60489;BME280;46331;49.252;8.904;2023-07-13T00:23:48;99694.59;;;18.13;70.76
60489;BME280;46331;49.252;8.904;2023-07-13T00:24:29;99691.72;;;18.09;70.70
60489;BME280;46331;49.252;8.904;2023-07-13T00:25:11;99697.66;;;18.06;70.88
60489;BME280;46331;49.252;8.904;2023-07-13T00:25:52;99698.50;;;18.01;71.18
60489;BME280;46331;49.252;8.904;2023-07-13T00:26:33;99703.66;;;17.98;71.39
60489;BME280;46331;49.252;8.904;2023-07-13T00:27:14;99693.78;;;17.93;71.24
60489;BME280;46331;49.252;8.904;2023-07-13T00:27:54;99697.84;;;17.91;71.42
60489;BME280;46331;49.252;8.904;2023-07-13T00:28:36;99698.34;;;17.93;71.69
60489;BME280;46331;49.252;8.904;2023-07-13T00:29:17;99695.94;;;17.91;71.29
60489;BME280;46331;49.252;8.904;2023-07-13T00:29:58;99690.88;;;17.90;71.43
60489;BME280;46331;49.252;8.904;2023-07-13T00:30:39;99695.19;;;17.85;71.71
60489;BME280;46331;49.252;8.904;2023-07-13T00:31:20;99693.09;;;17.82;71.96
60489;BME280;46331;49.252;8.904;2023-07-13T00:32:03;99690.16;;;17.79;71.97
60489;BME280;46331;49.252;8.904;2023-07-13T00:32:44;99697.97;;;17.75;71.91
60489;BME280;46331;49.252;8.904;2023-07-13T00:33:25;99690.00;;;17.70;72.33
60489;BME280;46331;49.252;8.904;2023-07-13T00:34:05;99695.38;;;17.70;72.24
60489;BME280;46331;49.252;8.904;2023-07-13T00:34:46;99694.53;;;17.69;72.34
60489;BME280;46331;49.252;8.904;2023-07-13T00:35:30;99690.00;;;17.70;72.27
60489;BME280;46331;49.252;8.904;2023-07-13T00:36:12;99688.19;;;17.65;72.35
60489;BME280;46331;49.252;8.904;2023-07-13T00:36:53;99696.78;;;17.62;72.61
60489;BME280;46331;49.252;8.904;2023-07-13T00:37:34;99691.72;;;17.61;72.76
60489;BME280;46331;49.252;8.904;2023-07-13T00:38:16;99696.81;;;17.57;73.08
60489;BME280;46331;49.252;8.904;2023-07-13T00:38:56;99697.66;;;17.58;73.21
60489;BME280;46331;49.252;8.904;2023-07-13T00:39:38;99692.56;;;17.56;73.19
60489;BME280;46331;49.252;8.904;2023-07-13T00:40:19;99695.81;;;17.53;73.23
60489;BME280;46331;49.252;8.904;2023-07-13T00:41:00;99697.69;;;17.52;73.51
60489;BME280;46331;49.252;8.904;2023-07-13T00:41:40;99700.34;;;17.52;74.14
60489;BME280;46331;49.252;8.904;2023-07-13T00:42:21;99689.63;;;17.52;73.73
60489;BME280;46331;49.252;8.904;2023-07-13T00:43:01;99697.38;;;17.54;73.66
60489;BME280;46331;49.252;8.904;2023-07-13T00:43:42;99696.59;;;17.54;73.98
60489;BME280;46331;49.252;8.904;2023-07-13T00:44:24;99694.72;;;17.54;73.98
60489;BME280;46331;49.252;8.904;2023-07-13T00:46:33;99696.50;;;17.64;73.69
60489;BME280;46331;49.252;8.904;2023-07-13T00:47:14;99697.00;;;17.66;73.74
60489;BME280;46331;49.252;8.904;2023-07-13T00:47:56;99690.56;;;17.67;73.43
60489;BME280;46331;49.252;8.904;2023-07-13T00:48:37;99691.06;;;17.69;73.52
60489;BME280;46331;49.252;8.904;2023-07-13T00:49:20;99693.19;;;17.72;73.46
60489;BME280;46331;49.252;8.904;2023-07-13T00:50:04;99703.34;;;17.75;73.45
60489;BME280;46331;49.252;8.904;2023-07-13T00:50:49;99697.97;;;17.75;73.48
60489;BME280;46331;49.252;8.904;2023-07-13T00:51:35;99699.31;;;17.78;73.38
60489;BME280;46331;49.252;8.904;2023-07-13T00:52:17;99705.41;;;17.83;73.25
60489;BME280;46331;49.252;8.904;2023-07-13T00:52:57;99701.06;;;17.87;73.05
60489;BME280;46331;49.252;8.904;2023-07-13T00:53:38;99702.41;;;17.90;72.81
60489;BME280;46331;49.252;8.904;2023-07-13T00:54:30;99699.44;;;17.92;72.63
60489;BME280;46331;49.252;8.904;2023-07-13T00:55:14;99703.66;;;17.98;72.33
60489;BME280;46331;49.252;8.904;2023-07-13T00:55:56;99695.63;;;17.98;72.41
60489;BME280;46331;49.252;8.904;2023-07-13T00:56:37;99691.81;;;17.99;72.21
60489;BME280;46331;49.252;8.904;2023-07-13T00:57:19;99699.88;;;17.99;72.26
60489;BME280;46331;49.252;8.904;2023-07-13T00:58:01;99698.50;;;18.01;72.09
60489;BME280;46331;49.252;8.904;2023-07-13T00:58:42;99711.13;;;18.01;71.78
60489;BME280;46331;49.252;8.904;2023-07-13T00:59:23;99709.53;;;18.00;71.83
60489;BME280;46331;49.252;8.904;2023-07-13T01:00:06;99698.00;;;17.99;71.71
60489;BME280;46331;49.252;8.904;2023-07-13T01:00:50;99705.78;;;18.01;72.01
60489;BME280;46331;49.252;8.904;2023-07-13T01:01:32;99700.41;;;18.01;71.71
60489;BME280;46331;49.252;8.904;2023-07-13T01:02:13;99705.25;;;17.99;71.86
60489;BME280;46331;49.252;8.904;2023-07-13T01:02:53;99702.06;;;17.97;71.87
60489;BME280;46331;49.252;8.904;2023-07-13T01:03:35;99702.34;;;17.95;72.03
60489;BME280;46331;49.252;8.904;2023-07-13T01:04:17;99703.72;;;17.93;71.92
60489;BME280;46331;49.252;8.904;2023-07-13T01:04:59;99702.13;;;17.92;72.08
60489;BME280;46331;49.252;8.904;2023-07-13T01:05:42;99694.38;;;17.90;72.03
60489;BME280;46331;49.252;8.904;2023-07-13T01:06:23;99702.13;;;17.86;71.99
60489;BME280;46331;49.252;8.904;2023-07-13T01:07:05;99698.16;;;17.84;72.50
60489;BME280;46331;49.252;8.904;2023-07-13T01:07:48;99693.09;;;17.82;72.20
60489;BME280;46331;49.252;8.904;2023-07-13T01:08:29;99696.06;;;17.81;72.04
60489;BME280;46331;49.252;8.904;2023-07-13T01:09:11;99702.50;;;17.80;72.37
60489;BME280;46331;49.252;8.904;2023-07-13T01:09:52;99699.59;;;17.76;72.43
60489;BME280;46331;49.252;8.904;2023-07-13T01:10:33;99697.75;;;17.72;72.49
60489;BME280;46331;49.252;8.904;2023-07-13T01:11:20;99698.63;;;17.67;72.50
60489;BME280;46331;49.252;8.904;2023-07-13T01:12:02;99693.00;;;17.63;72.60
60489;BME280;46331;49.252;8.904;2023-07-13T01:12:44;99700.03;;;17.59;72.96
60489;BME280;46331;49.252;8.904;2023-07-13T01:13:25;99695.00;;;17.52;73.32
60489;BME280;46331;49.252;8.904;2023-07-13T01:14:05;99693.97;;;17.48;73.43
60489;BME280;46331;49.252;8.904;2023-07-13T01:14:46;99707.41;;;17.43;73.58
60489;BME280;46331;49.252;8.904;2023-07-13T01:16:24;99705.59;;;17.39;73.71
60489;BME280;46331;49.252;8.904;2023-07-13T01:17:05;99705.94;;;17.32;73.89
60489;BME280;46331;49.252;8.904;2023-07-13T01:17:46;99712.91;;;17.33;74.09
60489;BME280;46331;49.252;8.904;2023-07-13T01:18:27;99706.72;;;17.32;74.60
60489;BME280;46331;49.252;8.904;2023-07-13T01:19:26;99707.28;;;17.29;74.29
60489;BME280;46331;49.252;8.904;2023-07-13T01:20:16;99715.88;;;17.26;74.50
60489;BME280;46331;49.252;8.904;2023-07-13T01:21:03;99718.56;;;17.26;74.67
60489;BME280;46331;49.252;8.904;2023-07-13T01:21:50;99712.19;;;17.22;74.43
60489;BME280;46331;49.252;8.904;2023-07-13T01:22:30;99714.63;;;17.19;74.81
60489;BME280;46331;49.252;8.904;2023-07-13T01:23:12;99707.94;;;17.16;75.05
60489;BME280;46331;49.252;8.904;2023-07-13T01:23:53;99707.69;;;17.12;75.33
60489;BME280;46331;49.252;8.904;2023-07-13T01:24:36;99704.78;;;17.09;75.51
60489;BME280;46331;49.252;8.904;2023-07-13T01:25:18;99710.16;;;17.09;75.77
60489;BME280;46331;49.252;8.904;2023-07-13T01:26:00;99713.09;;;17.07;75.86
60489;BME280;46331;49.252;8.904;2023-07-13T01:26:40;99715.28;;;17.05;75.91
60489;BME280;46331;49.252;8.904;2023-07-13T01:27:23;99711.25;;;17.03;76.18
60489;BME280;46331;49.252;8.904;2023-07-13T01:28:06;99716.13;;;17.01;76.31
60489;BME280;46331;49.252;8.904;2023-07-13T01:28:49;99711.81;;;17.00;76.29
60489;BME280;46331;49.252;8.904;2023-07-13T01:29:31;99707.25;;;17.00;76.25
60489;BME280;46331;49.252;8.904;2023-07-13T01:30:13;99714.78;;;16.98;76.26
60489;BME280;46331;49.252;8.904;2023-07-13T01:30:55;99710.50;;;16.97;76.43
60489;BME280;46331;49.252;8.904;2023-07-13T01:31:36;99711.31;;;16.97;76.70
60489;BME280;46331;49.252;8.904;2023-07-13T01:32:20;99714.28;;;16.96;76.83
60489;BME280;46331;49.252;8.904;2023-07-13T01:33:04;99714.56;;;16.94;76.86
60489;BME280;46331;49.252;8.904;2023-07-13T01:33:44;99714.00;;;16.92;77.02
60489;BME280;46331;49.252;8.904;2023-07-13T01:34:26;99710.03;;;16.90;76.91
60489;BME280;46331;49.252;8.904;2023-07-13T01:35:07;99714.84;;;16.88;76.95
60489;BME280;46331;49.252;8.904;2023-07-13T01:35:48;99711.91;;;16.84;76.76
60489;BME280;46331;49.252;8.904;2023-07-13T01:36:30;99715.94;;;16.81;77.28
60489;BME280;46331;49.252;8.904;2023-07-13T01:37:11;99712.25;;;16.77;77.63
60489;BME280;46331;49.252;8.904;2023-07-13T01:37:53;99716.25;;;16.75;77.59
60489;BME280;46331;49.252;8.904;2023-07-13T01:38:35;99711.97;;;16.74;77.52
60489;BME280;46331;49.252;8.904;2023-07-13T01:39:15;99709.06;;;16.70;77.60
60489;BME280;46331;49.252;8.904;2023-07-13T01:39:57;99709.91;;;16.66;77.62
60489;BME280;46331;49.252;8.904;2023-07-13T01:40:38;99704.81;;;16.64;77.92
60489;BME280;46331;49.252;8.904;2023-07-13T01:41:18;99712.06;;;16.63;78.04
60489;BME280;46331;49.252;8.904;2023-07-13T01:42:00;99706.44;;;16.60;77.60
60489;BME280;46331;49.252;8.904;2023-07-13T01:42:41;99716.63;;;16.58;78.19
60489;BME280;46331;49.252;8.904;2023-07-13T01:43:21;99709.44;;;16.53;78.10
60489;BME280;46331;49.252;8.904;2023-07-13T01:44:02;99711.06;;;16.49;78.19
60489;BME280;46331;49.252;8.904;2023-07-13T01:44:43;99707.06;;;16.47;78.41
60489;BME280;46331;49.252;8.904;2023-07-13T01:45:23;99707.63;;;16.43;79.03
60489;BME280;46331;49.252;8.904;2023-07-13T01:46:04;99704.66;;;16.45;78.92
60489;BME280;46331;49.252;8.904;2023-07-13T01:46:45;99715.13;;;16.41;78.46
60489;BME280;46331;49.252;8.904;2023-07-13T01:47:26;99716.72;;;16.42;78.34
60489;BME280;46331;49.252;8.904;2023-07-13T01:48:08;99714.31;;;16.41;78.67
60489;BME280;46331;49.252;8.904;2023-07-13T01:48:48;99711.38;;;16.42;78.17
60489;BME280;46331;49.252;8.904;2023-07-13T01:49:30;99714.59;;;16.39;77.93
60489;BME280;46331;49.252;8.904;2023-07-13T01:50:10;99710.31;;;16.38;78.03
60489;BME280;46331;49.252;8.904;2023-07-13T01:50:51;99713.00;;;16.38;78.29
60489;BME280;46331;49.252;8.904;2023-07-13T01:51:31;99711.97;;;16.34;78.48
60489;BME280;46331;49.252;8.904;2023-07-13T01:52:12;99711.13;;;16.34;78.39
60489;BME280;46331;49.252;8.904;2023-07-13T01:52:53;99713.56;;;16.30;78.09
60489;BME280;46331;49.252;8.904;2023-07-13T01:53:33;99720.25;;;16.27;78.30
60489;BME280;46331;49.252;8.904;2023-07-13T01:54:16;99720.81;;;16.24;78.24
60489;BME280;46331;49.252;8.904;2023-07-13T01:54:57;99713.63;;;16.20;78.31
60489;BME280;46331;49.252;8.904;2023-07-13T01:55:38;99712.59;;;16.16;78.67
60489;BME280;46331;49.252;8.904;2023-07-13T01:56:18;99713.13;;;16.13;78.93
60489;BME280;46331;49.252;8.904;2023-07-13T01:57:00;99713.91;;;16.13;78.90
60489;BME280;46331;49.252;8.904;2023-07-13T01:57:40;99713.41;;;16.11;78.87
60489;BME280;46331;49.252;8.904;2023-07-13T01:58:21;99720.59;;;16.11;79.15
60489;BME280;46331;49.252;8.904;2023-07-13T01:59:02;99714.47;;;16.10;78.94
60489;BME280;46331;49.252;8.904;2023-07-13T01:59:42;99707.22;;;16.11;79.36
60489;BME280;46331;49.252;8.904;2023-07-13T02:00:23;99719.81;;;16.10;79.13
60489;BME280;46331;49.252;8.904;2023-07-13T02:01:05;99715.25;;;16.11;79.21
60489;BME280;46331;49.252;8.904;2023-07-13T02:01:45;99712.59;;;16.11;79.48
60489;BME280;46331;49.252;8.904;2023-07-13T02:02:26;99715.81;;;16.13;79.46
60489;BME280;46331;49.252;8.904;2023-07-13T02:03:06;99701.88;;;16.11;79.42
60489;BME280;46331;49.252;8.904;2023-07-13T02:03:47;99712.59;;;16.11;79.52
60489;BME280;46331;49.252;8.904;2023-07-13T02:04:27;99714.19;;;16.12;79.57
60489;BME280;46331;49.252;8.904;2023-07-13T02:05:08;99716.06;;;16.11;79.50
60489;BME280;46331;49.252;8.904;2023-07-13T02:05:48;99712.03;;;16.14;79.00
60489;BME280;46331;49.252;8.904;2023-07-13T02:06:29;99722.47;;;16.15;79.15
60489;BME280;46331;49.252;8.904;2023-07-13T02:07:09;99719.50;;;16.17;79.15
60489;BME280;46331;49.252;8.904;2023-07-13T02:07:50;99717.94;;;16.16;78.88
60489;BME280;46331;49.252;8.904;2023-07-13T02:08:32;99718.72;;;16.16;78.79
60489;BME280;46331;49.252;8.904;2023-07-13T02:09:12;99720.34;;;16.12;78.92
60489;BME280;46331;49.252;8.904;2023-07-13T02:09:53;99716.06;;;16.11;78.86
60489;BME280;46331;49.252;8.904;2023-07-13T02:10:34;99717.13;;;16.10;78.98
60489;BME280;46331;49.252;8.904;2023-07-13T02:11:14;99708.59;;;16.03;78.82
60489;BME280;46331;49.252;8.904;2023-07-13T02:11:55;99712.38;;;16.02;78.88
60489;BME280;46331;49.252;8.904;2023-07-13T02:12:36;99708.88;;;16.01;78.89
60489;BME280;46331;49.252;8.904;2023-07-13T02:13:16;99708.88;;;16.01;78.98
60489;BME280;46331;49.252;8.904;2023-07-13T02:13:57;99710.25;;;15.99;78.94
60489;BME280;46331;49.252;8.904;2023-07-13T02:14:37;99709.16;;;16.00;78.64
60489;BME280;46331;49.252;8.904;2023-07-13T02:15:18;99704.63;;;15.95;79.00
60489;BME280;46331;49.252;8.904;2023-07-13T02:15:59;99707.03;;;15.91;78.95
60489;BME280;46331;49.252;8.904;2023-07-13T02:16:39;99710.50;;;15.92;78.77
60489;BME280;46331;49.252;8.904;2023-07-13T02:17:20;99715.84;;;15.92;78.98
60489;BME280;46331;49.252;8.904;2023-07-13T02:18:00;99720.16;;;15.88;78.93
60489;BME280;46331;49.252;8.904;2023-07-13T02:18:41;99719.91;;;15.84;79.26
60489;BME280;46331;49.252;8.904;2023-07-13T02:19:22;99710.56;;;15.82;79.75
60489;BME280;46331;49.252;8.904;2023-07-13T02:20:04;99719.91;;;15.79;79.33
60489;BME280;46331;49.252;8.904;2023-07-13T02:20:45;99716.41;;;15.79;79.85
60489;BME280;46331;49.252;8.904;2023-07-13T02:21:25;99717.25;;;15.79;79.89
60489;BME280;46331;49.252;8.904;2023-07-13T02:22:06;99710.53;;;15.77;79.58
60489;BME280;46331;49.252;8.904;2023-07-13T02:22:47;99717.50;;;15.78;79.38
60489;BME280;46331;49.252;8.904;2023-07-13T02:23:27;99715.63;;;15.78;79.20
60489;BME280;46331;49.252;8.904;2023-07-13T02:24:08;99721.22;;;15.77;79.03
60489;BME280;46331;49.252;8.904;2023-07-13T02:24:49;99716.41;;;15.79;79.29
60489;BME280;46331;49.252;8.904;2023-07-13T02:25:32;99712.97;;;15.78;79.22
60489;BME280;46331;49.252;8.904;2023-07-13T02:26:13;99726.06;;;15.80;79.06
60489;BME280;46331;49.252;8.904;2023-07-13T02:26:53;99719.09;;;15.79;79.08
60489;BME280;46331;49.252;8.904;2023-07-13T02:27:35;99717.50;;;15.78;78.88
60489;BME280;46331;49.252;8.904;2023-07-13T02:28:15;99732.19;;;15.75;79.26
60489;BME280;46331;49.252;8.904;2023-07-13T02:28:55;99719.88;;;15.74;79.35
60489;BME280;46331;49.252;8.904;2023-07-13T02:29:36;99723.66;;;15.73;79.34
60489;BME280;46331;49.252;8.904;2023-07-13T02:30:16;99724.72;;;15.72;79.14
60489;BME280;46331;49.252;8.904;2023-07-13T02:31:13;99725.53;;;15.67;79.25
60489;BME280;46331;49.252;8.904;2023-07-13T02:31:54;99722.06;;;15.67;79.04
60489;BME280;46331;49.252;8.904;2023-07-13T02:32:35;99728.72;;;15.64;79.31
60489;BME280;46331;49.252;8.904;2023-07-13T02:33:16;99720.19;;;15.62;79.54
60489;BME280;46331;49.252;8.904;2023-07-13T02:33:56;99727.13;;;15.63;79.40
60489;BME280;46331;49.252;8.904;2023-07-13T02:34:37;99723.66;;;15.63;79.30
60489;BME280;46331;49.252;8.904;2023-07-13T02:35:18;99721.78;;;15.63;79.20
60489;BME280;46331;49.252;8.904;2023-07-13T02:35:59;99720.47;;;15.61;78.98
60489;BME280;46331;49.252;8.904;2023-07-13T02:36:40;99720.22;;;15.52;79.17
60489;BME280;46331;49.252;8.904;2023-07-13T02:37:21;99718.59;;;15.51;79.39
60489;BME280;46331;49.252;8.904;2023-07-13T02:38:01;99724.47;;;15.48;79.37
60489;BME280;46331;49.252;8.904;2023-07-13T02:38:42;99720.50;;;15.45;79.62
60489;BME280;46331;49.252;8.904;2023-07-13T02:39:22;99725.28;;;15.43;79.71
60489;BME280;46331;49.252;8.904;2023-07-13T02:40:03;99721.81;;;15.43;79.76
60489;BME280;46331;49.252;8.904;2023-07-13T02:40:48;99731.72;;;15.42;79.90
60489;BME280;46331;49.252;8.904;2023-07-13T02:41:29;99729.03;;;15.42;79.82
60489;BME280;46331;49.252;8.904;2023-07-13T02:42:09;99720.47;;;15.40;79.80
60489;BME280;46331;49.252;8.904;2023-07-13T02:42:51;99726.66;;;15.41;79.66
60489;BME280;46331;49.252;8.904;2023-07-13T02:43:32;99732.78;;;15.41;79.60
60489;BME280;46331;49.252;8.904;2023-07-13T02:44:13;99728.50;;;15.40;79.89
60489;BME280;46331;49.252;8.904;2023-07-13T02:44:54;99726.91;;;15.39;79.65
60489;BME280;46331;49.252;8.904;2023-07-13T02:45:35;99732.53;;;15.37;79.56
60489;BME280;46331;49.252;8.904;2023-07-13T02:46:15;99725.03;;;15.34;79.61
60489;BME280;46331;49.252;8.904;2023-07-13T02:46:56;99727.72;;;15.34;79.58
60489;BME280;46331;49.252;8.904;2023-07-13T02:47:36;99738.94;;;15.36;79.89
60489;BME280;46331;49.252;8.904;2023-07-13T02:48:17;99729.03;;;15.37;79.57
60489;BME280;46331;49.252;8.904;2023-07-13T02:48:58;99728.25;;;15.36;79.76
60489;BME280;46331;49.252;8.904;2023-07-13T02:49:38;99735.19;;;15.37;79.91
60489;BME280;46331;49.252;8.904;2023-07-13T02:50:19;99729.84;;;15.37;79.92
60489;BME280;46331;49.252;8.904;2023-07-13T02:50:59;99736.00;;;15.38;80.00
60489;BME280;46331;49.252;8.904;2023-07-13T02:51:40;99734.94;;;15.39;79.96
60489;BME280;46331;49.252;8.904;2023-07-13T02:52:20;99735.19;;;15.37;79.94
60489;BME280;46331;49.252;8.904;2023-07-13T02:53:01;99737.84;;;15.43;79.84
60489;BME280;46331;49.252;8.904;2023-07-13T02:53:41;99732.00;;;15.41;79.38
60489;BME280;46331;49.252;8.904;2023-07-13T02:54:22;99733.31;;;15.43;79.36
60489;BME280;46331;49.252;8.904;2023-07-13T02:55:03;99733.84;;;15.40;79.32
60489;BME280;46331;49.252;8.904;2023-07-13T02:55:43;99740.00;;;15.41;79.05
60489;BME280;46331;49.252;8.904;2023-07-13T02:56:28;99732.00;;;15.41;79.47
60489;BME280;46331;49.252;8.904;2023-07-13T02:57:09;99731.16;;;15.40;79.28
60489;BME280;46331;49.252;8.904;2023-07-13T02:57:50;99725.03;;;15.34;78.91
60489;BME280;46331;49.252;8.904;2023-07-13T02:58:31;99728.25;;;15.31;79.34
60489;BME280;46331;49.252;8.904;2023-07-13T02:59:11;99724.25;;;15.29;79.84
60489;BME280;46331;49.252;8.904;2023-07-13T02:59:52;99726.91;;;15.29;79.88
60489;BME280;46331;49.252;8.904;2023-07-13T03:00:33;99729.06;;;15.27;79.84
60489;BME280;46331;49.252;8.904;2023-07-13T03:01:14;99727.44;;;15.26;79.75
60489;BME280;46331;49.252;8.904;2023-07-13T03:02:01;99726.66;;;15.25;79.92
60489;BME280;46331;49.252;8.904;2023-07-13T03:02:42;99727.97;;;15.23;80.11
60489;BME280;46331;49.252;8.904;2023-07-13T03:03:23;99731.19;;;15.19;80.18
60489;BME280;46331;49.252;8.904;2023-07-13T03:04:04;99731.44;;;15.18;80.09
60489;BME280;46331;49.252;8.904;2023-07-13T03:04:47;99728.25;;;15.16;80.28
60489;BME280;46331;49.252;8.904;2023-07-13T03:05:28;99730.94;;;15.16;80.25
60489;BME280;46331;49.252;8.904;2023-07-13T03:06:09;99731.44;;;15.18;80.26
60489;BME280;46331;49.252;8.904;2023-07-13T03:06:57;99727.16;;;15.17;80.18
60489;BME280;46331;49.252;8.904;2023-07-13T03:07:41;99720.25;;;15.16;80.25
60489;BME280;46331;49.252;8.904;2023-07-13T03:08:23;99731.19;;;15.14;80.27
60489;BME280;46331;49.252;8.904;2023-07-13T03:09:05;99732.25;;;15.13;80.14
60489;BME280;46331;49.252;8.904;2023-07-13T03:09:48;99723.97;;;15.15;80.33
60489;BME280;46331;49.252;8.904;2023-07-13T03:10:29;99727.69;;;15.14;80.15
60489;BME280;46331;49.252;8.904;2023-07-13T03:11:15;99730.38;;;15.14;80.13
60489;BME280;46331;49.252;8.904;2023-07-13T03:11:57;99735.72;;;15.14;80.29
60489;BME280;46331;49.252;8.904;2023-07-13T03:12:42;99733.31;;;15.12;79.96
60489;BME280;46331;49.252;8.904;2023-07-13T03:13:29;99724.78;;;15.10;80.28
60489;BME280;46331;49.252;8.904;2023-07-13T03:14:10;99728.50;;;15.09;80.22
60489;BME280;46331;49.252;8.904;2023-07-13T03:14:52;99727.72;;;15.09;80.49
60489;BME280;46331;49.252;8.904;2023-07-13T03:15:33;99729.84;;;15.07;80.79
60489;BME280;46331;49.252;8.904;2023-07-13T03:16:14;99728.50;;;15.04;80.51
60489;BME280;46331;49.252;8.904;2023-07-13T03:17:00;99727.72;;;15.04;80.62
60489;BME280;46331;49.252;8.904;2023-07-13T03:17:43;99738.94;;;15.06;80.74
60489;BME280;46331;49.252;8.904;2023-07-13T03:18:26;99734.38;;;15.06;80.55
60489;BME280;46331;49.252;8.904;2023-07-13T03:19:07;99735.19;;;15.07;80.87
60489;BME280;46331;49.252;8.904;2023-07-13T03:19:48;99736.25;;;15.06;80.81
60489;BME280;46331;49.252;8.904;2023-07-13T03:20:33;99737.06;;;15.06;80.48
60489;BME280;46331;49.252;8.904;2023-07-13T03:21:14;99738.94;;;15.06;80.76
60489;BME280;46331;49.252;8.904;2023-07-13T03:21:55;99736.25;;;15.06;80.24
60489;BME280;46331;49.252;8.904;2023-07-13T03:22:36;99737.06;;;15.06;80.69
60489;BME280;46331;49.252;8.904;2023-07-13T03:23:16;99738.13;;;15.05;80.36
60489;BME280;46331;49.252;8.904;2023-07-13T03:23:57;99738.13;;;15.05;80.36
60489;BME280;46331;49.252;8.904;2023-07-13T03:24:37;99735.19;;;15.07;80.68
60489;BME280;46331;49.252;8.904;2023-07-13T03:25:19;99741.06;;;15.04;80.53
60489;BME280;46331;49.252;8.904;2023-07-13T03:26:12;99744.28;;;15.06;80.55
60489;BME280;46331;49.252;8.904;2023-07-13T03:26:54;99744.81;;;15.02;80.50
60489;BME280;46331;49.252;8.904;2023-07-13T03:27:36;99740.53;;;15.01;80.48
60489;BME280;46331;49.252;8.904;2023-07-13T03:28:17;99742.66;;;14.99;80.51
60489;BME280;46331;49.252;8.904;2023-07-13T03:28:58;99748.28;;;14.98;80.38
60489;BME280;46331;49.252;8.904;2023-07-13T03:29:38;99750.41;;;14.96;80.73
60489;BME280;46331;49.252;8.904;2023-07-13T03:30:19;99740.78;;;14.95;80.66
60489;BME280;46331;49.252;8.904;2023-07-13T03:31:14;99744.25;;;14.95;80.36
60489;BME280;46331;49.252;8.904;2023-07-13T03:31:55;99750.69;;;14.94;80.59
60489;BME280;46331;49.252;8.904;2023-07-13T03:32:37;99739.44;;;14.92;80.65
60489;BME280;46331;49.252;8.904;2023-07-13T03:33:17;99745.88;;;14.91;80.98
60489;BME280;46331;49.252;8.904;2023-07-13T03:33:58;99750.38;;;14.91;80.81
60489;BME280;46331;49.252;8.904;2023-07-13T03:34:38;99741.59;;;14.90;80.96
60489;BME280;46331;49.252;8.904;2023-07-13T03:35:19;99746.94;;;14.90;80.85
60489;BME280;46331;49.252;8.904;2023-07-13T03:36:00;99753.06;;;14.91;81.00
60489;BME280;46331;49.252;8.904;2023-07-13T03:36:41;99746.94;;;14.90;81.01
60489;BME280;46331;49.252;8.904;2023-07-13T03:37:24;99755.19;;;14.89;81.14
60489;BME280;46331;49.252;8.904;2023-07-13T03:38:05;99752.53;;;14.89;81.04
60489;BME280;46331;49.252;8.904;2023-07-13T03:38:48;99749.06;;;14.88;80.96
60489;BME280;46331;49.252;8.904;2023-07-13T03:39:30;99752.00;;;14.87;81.11
60489;BME280;46331;49.252;8.904;2023-07-13T03:40:13;99752.78;;;14.87;81.22
60489;BME280;46331;49.252;8.904;2023-07-13T03:40:58;99752.00;;;14.87;81.29
60489;BME280;46331;49.252;8.904;2023-07-13T03:41:38;99752.78;;;14.87;81.29
60489;BME280;46331;49.252;8.904;2023-07-13T03:42:19;99756.25;;;14.88;81.28
60489;BME280;46331;49.252;8.904;2023-07-13T03:43:00;99748.25;;;14.88;81.41